createdAt,value
2023-02-11T00:01:36.053Z,5.60
2023-02-11T00:04:06.041Z,3.75
2023-02-11T00:06:36.574Z,3.70
2023-02-11T00:09:05.884Z,4.05
2023-02-11T00:11:34.481Z,5.22
2023-02-11T00:14:06.029Z,5.28
2023-02-11T00:16:34.501Z,5.28
2023-02-11T00:19:04.646Z,5.88
2023-02-11T00:21:33.357Z,6.55
2023-02-11T00:24:03.188Z,3.38
2023-02-11T00:26:34.441Z,11.40
2023-02-11T00:29:03.434Z,20.90
2023-02-11T00:31:31.963Z,5.18
2023-02-11T00:34:00.402Z,5.88
2023-02-11T00:36:30.482Z,2.92
2023-02-11T00:38:59.345Z,4.32
2023-02-11T00:41:27.774Z,5.80
2023-02-11T00:43:56.117Z,4.50
2023-02-11T00:46:24.760Z,5.28
2023-02-11T00:48:55.910Z,4.57
2023-02-11T00:51:24.988Z,2.75
2023-02-11T00:53:53.865Z,6.40
2023-02-11T00:56:22.664Z,3.22
2023-02-11T00:58:51.206Z,5.80
2023-02-11T01:01:19.561Z,5.07
2023-02-11T01:03:48.059Z,4.40
2023-02-11T01:06:16.613Z,2.90
2023-02-11T01:08:45.139Z,1.83
2023-02-11T01:11:17.295Z,2.20
2023-02-11T01:13:46.393Z,1.67
2023-02-11T01:16:15.638Z,1.77
2023-02-11T01:18:45.210Z,2.17
2023-02-11T01:21:15.022Z,3.08
2023-02-11T01:23:43.409Z,0.98
2023-02-11T01:26:11.931Z,7.90
2023-02-11T01:28:40.826Z,2.97
2023-02-11T01:31:09.357Z,2.75
2023-02-11T01:33:37.739Z,2.03
2023-02-11T01:36:07.031Z,2.97
2023-02-11T01:38:36.362Z,2.70
2023-02-11T01:41:08.949Z,1.85
2023-02-11T01:43:40.335Z,2.35
2023-02-11T01:46:35.561Z,3.30
2023-02-11T01:51:40.546Z,2.22
2023-02-11T01:54:30.868Z,2.65
2023-02-11T01:57:19.537Z,2.35
2023-02-11T02:00:01.032Z,2.22
2023-02-11T02:02:53.388Z,1.90
2023-02-11T02:05:21.740Z,2.17
2023-02-11T02:08:22.532Z,2.38
2023-02-11T02:10:57.167Z,3.70
2023-02-11T02:15:59.162Z,4.43
2023-02-11T02:19:03.927Z,4.05
2023-02-11T02:21:56.073Z,2.05
2023-02-11T02:24:58.643Z,2.05
2023-02-11T02:27:36.461Z,2.35
2023-02-11T02:30:25.703Z,1.80
2023-02-11T02:33:22.648Z,4.15
2023-02-11T02:36:15.894Z,4.68
2023-02-11T02:39:16.900Z,4.93
2023-02-11T02:41:47.036Z,3.95
2023-02-11T02:44:15.425Z,4.00
2023-02-11T02:46:43.801Z,2.38
2023-02-11T02:49:16.658Z,4.30
2023-02-11T02:52:02.201Z,5.88
2023-02-11T02:54:48.423Z,2.65
2023-02-11T02:57:22.118Z,2.08
2023-02-11T03:00:23.710Z,3.90
2023-02-11T03:03:27.140Z,3.72
2023-02-11T03:06:18.803Z,1.98
2023-02-11T03:09:02.235Z,3.70
2023-02-11T03:11:31.012Z,2.53
2023-02-11T03:14:03.839Z,2.25
2023-02-11T03:16:38.963Z,5.80
2023-02-11T03:19:27.646Z,5.35
2023-02-11T03:21:58.285Z,4.75
2023-02-11T03:24:40.108Z,6.43
2023-02-11T03:27:19.553Z,7.40
2023-02-11T03:30:05.585Z,6.25
2023-02-11T03:32:40.028Z,5.30
2023-02-11T03:35:40.682Z,5.45
2023-02-11T03:38:27.192Z,3.50
2023-02-11T03:40:57.661Z,4.22
2023-02-11T03:43:35.070Z,4.50
2023-02-11T03:46:04.708Z,5.00
2023-02-11T03:48:43.297Z,3.25
2023-02-11T03:51:13.560Z,4.90
2023-02-11T03:53:44.459Z,7.82
2023-02-11T03:56:19.362Z,4.65
2023-02-11T03:58:49.051Z,5.03
2023-02-11T04:01:18.075Z,4.57
2023-02-11T04:03:46.950Z,4.57
2023-02-11T04:06:15.311Z,4.78
2023-02-11T04:08:43.633Z,9.13
2023-02-11T04:11:11.996Z,5.50
2023-02-11T04:13:40.331Z,7.35
2023-02-11T04:16:09.107Z,8.23
2023-02-11T04:18:37.484Z,7.95
2023-02-11T04:21:05.875Z,4.93
2023-02-11T04:23:34.194Z,5.57
2023-02-11T04:26:02.581Z,5.45
2023-02-11T04:28:31.007Z,9.35
2023-02-11T04:31:00.026Z,7.55
2023-02-11T04:33:28.413Z,6.15
2023-02-11T04:35:56.679Z,7.18
2023-02-11T04:38:27.969Z,6.10
2023-02-11T04:40:56.306Z,4.90
2023-02-11T04:43:24.599Z,7.00
2023-02-11T04:45:53.129Z,4.97
2023-02-11T04:48:21.567Z,7.35
2023-02-11T04:50:49.836Z,6.78
2023-02-11T04:53:18.129Z,4.53
2023-02-11T04:55:46.579Z,3.70
2023-02-11T04:58:14.911Z,5.50
2023-02-11T05:00:43.352Z,6.22
2023-02-11T05:03:11.748Z,6.70
2023-02-11T05:05:41.743Z,4.07
2023-02-11T05:08:11.464Z,7.43
2023-02-11T05:10:39.918Z,4.68
2023-02-11T05:13:08.235Z,5.40
2023-02-11T05:15:36.899Z,4.32
2023-02-11T05:18:05.387Z,5.75
2023-02-11T05:20:33.658Z,6.45
2023-02-11T05:23:01.885Z,5.68
2023-02-11T05:25:30.134Z,5.07
2023-02-11T05:27:58.427Z,4.38
2023-02-11T05:30:26.883Z,3.92
2023-02-11T05:32:55.476Z,6.25
2023-02-11T05:35:23.839Z,5.20
2023-02-11T05:37:52.169Z,6.45
2023-02-11T05:40:20.570Z,6.57
2023-02-11T05:42:48.842Z,5.22
2023-02-11T05:45:17.224Z,6.72
2023-02-11T05:47:45.604Z,7.93
2023-02-11T05:50:13.864Z,8.50
2023-02-11T05:52:42.122Z,6.63
2023-02-11T05:55:10.611Z,4.95
2023-02-11T05:57:38.893Z,7.38
2023-02-11T06:00:08.170Z,6.38
2023-02-11T06:02:36.535Z,4.25
2023-02-11T06:05:04.961Z,6.10
2023-02-11T06:07:33.381Z,3.80
2023-02-11T06:10:02.150Z,5.82
2023-02-11T06:12:30.480Z,3.50
2023-02-11T06:14:58.816Z,4.50
2023-02-11T06:17:27.185Z,4.40
2023-02-11T06:19:58.291Z,5.88
2023-02-11T06:22:27.638Z,5.53
2023-02-11T06:25:01.795Z,5.30
2023-02-11T06:29:58.815Z,6.75
2023-02-11T06:32:43.406Z,7.90
2023-02-11T06:35:12.842Z,6.35
2023-02-11T06:37:42.271Z,5.40
2023-02-11T06:40:12.317Z,6.72
2023-02-11T06:42:40.804Z,7.63
2023-02-11T06:45:11.770Z,4.97
2023-02-11T06:47:41.341Z,7.68
2023-02-11T06:50:13.205Z,6.43
2023-02-11T06:52:41.917Z,5.25
2023-02-11T06:55:11.336Z,5.85
2023-02-11T06:57:39.889Z,3.95
2023-02-11T07:00:08.978Z,4.15
2023-02-11T07:02:37.587Z,6.45
2023-02-11T07:05:08.366Z,8.10
2023-02-11T07:07:36.996Z,7.65
2023-02-11T07:10:06.746Z,5.10
2023-02-11T07:12:35.076Z,7.65
2023-02-11T07:15:03.724Z,5.95
2023-02-11T07:17:32.107Z,4.55
2023-02-11T07:20:00.423Z,8.68
2023-02-11T07:22:28.807Z,8.05
2023-02-11T07:24:57.126Z,6.70
2023-02-11T07:27:25.437Z,7.07
2023-02-11T07:29:53.749Z,7.63
2023-02-11T07:32:22.732Z,6.22
2023-02-11T07:34:51.118Z,9.43
2023-02-11T07:37:19.937Z,5.63
2023-02-11T07:39:48.389Z,8.43
2023-02-11T07:42:16.733Z,4.55
2023-02-11T07:44:45.075Z,9.02
2023-02-11T07:47:13.425Z,5.03
2023-02-11T07:49:41.734Z,6.43
2023-02-11T07:52:10.040Z,5.80
2023-02-11T07:54:38.407Z,6.13
2023-02-11T07:57:06.689Z,5.22
2023-02-11T07:59:35.095Z,7.65
2023-02-11T08:02:03.641Z,10.20
2023-02-11T08:04:31.986Z,7.45
2023-02-11T08:07:00.253Z,11.75
2023-02-11T08:09:28.571Z,6.35
2023-02-11T08:11:56.909Z,6.63
2023-02-11T08:14:26.087Z,8.40
2023-02-11T08:16:54.449Z,6.60
2023-02-11T08:19:22.812Z,6.38
2023-02-11T08:21:51.551Z,5.97
2023-02-11T08:24:19.871Z,6.25
2023-02-11T08:26:48.115Z,8.50
2023-02-11T08:29:18.020Z,5.57
2023-02-11T08:31:48.400Z,12.23
2023-02-11T08:34:19.928Z,7.43
2023-02-11T08:36:49.475Z,5.88
2023-02-11T08:39:21.689Z,7.10
2023-02-11T08:41:55.057Z,7.57
2023-02-11T08:44:26.708Z,6.57
2023-02-11T08:46:54.982Z,6.63
2023-02-11T08:49:24.264Z,8.23
2023-02-11T08:51:52.836Z,5.18
2023-02-11T08:54:21.114Z,4.32
2023-02-11T08:56:52.992Z,5.65
2023-02-11T08:59:21.316Z,4.18
2023-02-11T09:01:50.291Z,7.20
2023-02-11T09:04:18.786Z,5.13
2023-02-11T09:06:47.600Z,5.85
2023-02-11T09:09:17.370Z,5.07
2023-02-11T09:11:46.509Z,6.18
2023-02-11T09:14:22.167Z,5.35
2023-02-11T09:16:52.386Z,9.25
2023-02-11T09:19:21.420Z,4.90
2023-02-11T09:21:49.985Z,4.05
2023-02-11T09:24:19.321Z,7.18
2023-02-11T09:26:47.979Z,3.35
2023-02-11T09:29:16.361Z,6.50
2023-02-11T09:31:44.948Z,4.80
2023-02-11T09:34:13.665Z,7.78
2023-02-11T09:36:42.426Z,8.55
2023-02-11T09:39:17.933Z,3.60
2023-02-11T09:42:07.203Z,5.57
2023-02-11T09:44:38.241Z,5.55
2023-02-11T09:47:28.233Z,6.65
2023-02-11T09:50:05.540Z,4.78
2023-02-11T09:53:01.057Z,6.00
2023-02-11T09:55:31.121Z,5.00
2023-02-11T09:57:59.875Z,4.22
2023-02-11T10:01:10.223Z,5.30
2023-02-11T10:03:47.739Z,5.47
2023-02-11T10:06:22.094Z,6.90
2023-02-11T10:09:08.512Z,1.85
2023-02-11T10:12:07.864Z,6.25
2023-02-11T10:14:56.957Z,4.05
2023-02-11T10:17:51.784Z,4.43
2023-02-11T10:20:36.964Z,7.22
2023-02-11T10:23:37.615Z,4.93
2023-02-11T10:26:17.245Z,4.32
2023-02-11T10:28:52.045Z,6.00
2023-02-11T10:31:26.355Z,5.22
2023-02-11T10:34:05.678Z,8.07
2023-02-11T10:36:40.983Z,4.82
2023-02-11T10:39:24.731Z,5.88
2023-02-11T10:41:58.427Z,6.45
2023-02-11T10:44:37.535Z,5.40
2023-02-11T10:47:23.476Z,8.10
2023-02-11T10:49:51.805Z,6.30
2023-02-11T10:52:21.746Z,4.40
2023-02-11T10:55:15.688Z,6.75
2023-02-11T10:57:55.612Z,6.90
2023-02-11T11:00:41.091Z,7.00
2023-02-11T11:03:20.610Z,5.85
2023-02-11T11:05:58.498Z,4.88
2023-02-11T11:09:05.542Z,5.05
2023-02-11T11:11:33.847Z,5.10
2023-02-11T11:14:04.607Z,7.10
2023-02-11T11:16:37.801Z,5.68
2023-02-11T11:19:09.034Z,8.55
2023-02-11T11:21:49.069Z,5.05
2023-02-11T11:24:27.813Z,6.05
2023-02-11T11:27:00.482Z,6.75
2023-02-11T11:29:35.458Z,9.50
2023-02-11T11:32:16.329Z,6.15
2023-02-11T11:34:51.683Z,4.15
2023-02-11T11:37:30.822Z,5.47
2023-02-11T11:40:10.958Z,3.45
2023-02-11T11:42:41.556Z,5.30
2023-02-11T11:45:23.847Z,5.05
2023-02-11T11:48:20.981Z,6.63
2023-02-11T11:50:51.627Z,5.70
2023-02-11T11:53:30.212Z,6.25
2023-02-11T11:56:27.373Z,7.47
2023-02-11T11:58:56.054Z,5.57
2023-02-11T12:01:30.059Z,8.63
2023-02-11T12:04:29.501Z,5.97
2023-02-11T12:07:17.840Z,7.55
2023-02-11T12:10:07.802Z,6.72
2023-02-11T12:12:46.852Z,4.18
2023-02-11T12:15:51.655Z,5.53
2023-02-11T12:18:39.560Z,6.22
2023-02-11T12:21:30.428Z,4.65
2023-02-11T12:24:17.185Z,5.05
2023-02-11T12:27:11.086Z,3.50
2023-02-11T12:29:42.490Z,5.80
2023-02-11T12:32:42.264Z,4.15
2023-02-11T12:35:26.993Z,5.70
2023-02-11T12:38:19.598Z,7.55
2023-02-11T12:41:16.584Z,8.43
2023-02-11T12:43:46.481Z,4.25
2023-02-11T12:46:32.977Z,4.72
2023-02-11T12:49:17.813Z,6.10
2023-02-11T12:52:13.311Z,5.60
2023-02-11T12:57:27.371Z,4.85
2023-02-11T13:00:04.122Z,7.47
2023-02-11T13:02:51.988Z,8.05
2023-02-11T13:05:28.368Z,4.50
2023-02-11T13:08:07.298Z,4.53
2023-02-11T13:10:54.165Z,4.70
2023-02-11T13:13:37.075Z,3.47
2023-02-11T13:16:08.356Z,5.65
2023-02-11T13:18:52.313Z,3.00
2023-02-11T13:21:39.985Z,3.78
2023-02-11T13:24:21.021Z,4.10
2023-02-11T13:27:13.317Z,6.00
2023-02-11T13:30:13.676Z,3.85
2023-02-11T13:32:57.018Z,3.35
2023-02-11T13:35:34.166Z,3.50
2023-02-11T13:38:26.741Z,5.82
2023-02-11T13:41:21.929Z,4.57
2023-02-11T13:44:23.028Z,2.55
2023-02-11T13:46:54.783Z,5.43
2023-02-11T13:49:32.066Z,4.68
2023-02-11T13:52:02.784Z,6.00
2023-02-11T13:54:39.297Z,3.42
2023-02-11T13:57:22.491Z,6.03
2023-02-11T13:59:54.701Z,4.07
2023-02-11T14:02:46.495Z,4.03
2023-02-11T14:05:52.421Z,3.78
2023-02-11T14:08:41.757Z,6.47
2023-02-11T14:11:25.987Z,3.47
2023-02-11T14:13:54.443Z,5.77
2023-02-11T14:16:37.470Z,2.83
2023-02-11T14:19:06.962Z,3.22
2023-02-11T14:21:42.250Z,5.85
2023-02-11T14:24:13.855Z,4.10
2023-02-11T14:26:54.762Z,4.88
2023-02-11T14:29:26.356Z,3.22
2023-02-11T14:32:12.581Z,3.60
2023-02-11T14:35:08.600Z,3.78
2023-02-11T14:37:50.629Z,2.97
2023-02-11T14:40:32.034Z,4.10
2023-02-11T14:43:14.021Z,3.13
2023-02-11T14:45:46.389Z,5.15
2023-02-11T14:48:20.464Z,4.68
2023-02-11T14:51:01.889Z,6.97
2023-02-11T14:53:32.989Z,4.57
2023-02-11T14:56:01.773Z,6.30
2023-02-11T14:58:34.709Z,5.25
2023-02-11T15:01:09.873Z,3.90
2023-02-11T15:03:40.775Z,5.95
2023-02-11T15:06:14.400Z,4.90
2023-02-11T15:09:05.224Z,4.15
2023-02-11T15:11:40.423Z,3.92
2023-02-11T15:14:18.291Z,5.28
2023-02-11T15:16:48.145Z,4.90
2023-02-11T15:19:34.127Z,3.95
2023-02-11T15:22:05.590Z,5.00
2023-02-11T15:24:36.242Z,6.95
2023-02-11T15:27:19.324Z,5.38
2023-02-11T15:29:50.423Z,5.30
2023-02-11T15:32:22.549Z,7.43
2023-02-11T15:34:53.488Z,3.97
2023-02-11T15:37:27.568Z,5.28
2023-02-11T15:39:56.539Z,5.22
2023-02-11T15:42:40.996Z,3.90
2023-02-11T15:45:15.535Z,6.18
2023-02-11T15:47:56.277Z,6.38
2023-02-11T15:50:31.336Z,5.13
2023-02-11T15:53:06.337Z,5.43
2023-02-11T15:55:34.737Z,7.47
2023-02-11T15:58:03.304Z,3.80
2023-02-11T16:00:48.613Z,5.47
2023-02-11T16:03:25.811Z,5.88
2023-02-11T16:05:54.304Z,7.45
2023-02-11T16:08:30.610Z,5.53
2023-02-11T16:11:09.448Z,4.32
2023-02-11T16:13:48.585Z,6.65
2023-02-11T16:16:30.168Z,6.50
2023-02-11T16:19:05.393Z,6.10
2023-02-11T16:21:43.279Z,3.95
2023-02-11T16:24:28.854Z,6.03
2023-02-11T16:27:03.337Z,6.25
2023-02-11T16:29:37.911Z,4.95
2023-02-11T16:32:08.951Z,7.65
2023-02-11T16:34:38.157Z,7.38
2023-02-11T16:37:07.302Z,3.92
2023-02-11T16:39:35.806Z,6.15
2023-02-11T16:42:07.101Z,5.43
2023-02-11T16:44:35.919Z,7.65
2023-02-11T16:47:06.923Z,7.03
2023-02-11T16:49:42.660Z,3.22
2023-02-11T16:52:15.600Z,4.18
2023-02-11T16:54:44.076Z,6.97
2023-02-11T16:57:19.172Z,4.85
2023-02-11T16:59:48.117Z,4.03
2023-02-11T17:02:32.296Z,3.95
2023-02-11T17:05:03.413Z,5.40
2023-02-11T17:07:32.098Z,4.88
2023-02-11T17:10:00.676Z,6.05
2023-02-11T17:12:29.034Z,2.53
2023-02-11T17:14:57.312Z,3.03
2023-02-11T17:17:25.637Z,3.65
2023-02-11T17:19:53.923Z,3.60
2023-02-11T17:22:22.185Z,4.93
2023-02-11T17:24:50.547Z,5.38
2023-02-11T17:27:18.830Z,2.95
2023-02-11T17:29:48.447Z,5.53
2023-02-11T17:32:16.788Z,5.20
2023-02-11T17:34:45.190Z,4.43
2023-02-11T17:37:13.568Z,3.95
2023-02-11T17:39:41.990Z,3.65
2023-02-11T17:42:10.312Z,3.38
2023-02-11T17:44:39.276Z,6.72
2023-02-11T17:47:08.641Z,3.33
2023-02-11T17:49:37.184Z,4.00
2023-02-11T17:52:05.478Z,4.82
2023-02-11T17:54:33.781Z,3.97
2023-02-11T17:57:02.142Z,4.93
2023-02-11T17:59:36.160Z,4.10
2023-02-11T18:02:05.199Z,4.43
2023-02-11T18:04:34.115Z,3.08
2023-02-11T18:07:02.490Z,3.92
2023-02-11T18:09:32.246Z,2.85
2023-02-11T18:12:00.702Z,3.33
2023-02-11T18:14:29.003Z,6.20
2023-02-11T18:16:57.344Z,3.10
2023-02-11T18:19:25.786Z,4.43
2023-02-11T18:21:54.061Z,2.80
2023-02-11T18:24:22.714Z,2.40
2023-02-11T18:26:51.016Z,2.95
2023-02-11T18:29:19.596Z,3.00
2023-02-11T18:31:48.274Z,4.63
2023-02-11T18:34:17.865Z,2.30
2023-02-11T18:36:46.296Z,3.20
2023-02-11T18:39:14.677Z,4.55
2023-02-11T18:41:44.430Z,4.00
2023-02-11T18:44:15.012Z,4.13
2023-02-11T18:46:43.416Z,3.38
2023-02-11T18:49:13.984Z,4.13
2023-02-11T18:51:42.327Z,4.55
2023-02-11T18:54:10.654Z,2.00
2023-02-11T18:56:38.975Z,2.00
2023-02-11T18:59:07.524Z,1.83
2023-02-11T19:01:36.554Z,1.75
2023-02-11T19:04:06.694Z,2.42
2023-02-11T19:06:37.463Z,1.80
2023-02-11T19:09:12.089Z,1.45
2023-02-11T19:14:24.431Z,1.05
2023-02-11T19:16:54.953Z,1.10
2023-02-11T19:19:25.401Z,1.92
2023-02-11T19:21:54.368Z,1.70
2023-02-11T19:24:24.590Z,1.30
2023-02-11T19:26:54.614Z,0.82
2023-02-11T19:29:23.679Z,0.60
2023-02-11T19:31:52.080Z,1.67
2023-02-11T19:34:21.405Z,2.53
2023-02-11T19:36:51.215Z,0.98
2023-02-11T19:39:19.560Z,1.55
2023-02-11T19:41:48.187Z,1.45
2023-02-11T19:44:19.834Z,0.30
2023-02-11T19:46:51.065Z,1.40
2023-02-11T19:49:23.785Z,1.15
2023-02-11T19:51:53.025Z,0.88
2023-02-11T19:54:22.345Z,0.98
2023-02-11T19:56:50.705Z,0.68
2023-02-11T19:59:19.096Z,1.02
2023-02-11T20:01:50.750Z,0.73
2023-02-11T20:04:19.213Z,2.05
2023-02-11T20:06:51.304Z,1.27
2023-02-11T20:09:19.813Z,1.35
2023-02-11T20:11:48.451Z,1.00
2023-02-11T20:14:17.172Z,1.15
2023-02-11T20:16:49.274Z,1.13
2023-02-11T20:19:21.098Z,1.73
2023-02-11T20:21:52.433Z,1.30
2023-02-11T20:24:21.383Z,3.33
2023-02-11T20:26:50.466Z,3.38
2023-02-11T20:29:19.567Z,3.05
2023-02-11T20:31:49.407Z,1.75
2023-02-11T20:34:22.158Z,2.05
2023-02-11T20:36:52.520Z,2.28
2023-02-11T20:39:23.069Z,2.85
2023-02-11T20:41:52.398Z,2.80
2023-02-11T20:44:23.129Z,3.10
2023-02-11T20:46:52.392Z,2.55
2023-02-11T20:49:24.465Z,1.65
2023-02-11T20:51:54.538Z,2.40
2023-02-11T20:54:24.142Z,2.08
2023-02-11T20:56:54.461Z,1.83
2023-02-11T20:59:22.915Z,2.45
2023-02-11T21:01:56.466Z,1.30
2023-02-11T21:04:30.773Z,1.80
2023-02-11T21:07:01.146Z,2.25
2023-02-11T21:09:32.252Z,1.15
2023-02-11T21:12:01.338Z,2.63
2023-02-11T21:14:30.611Z,1.55
2023-02-11T21:16:59.278Z,1.75
2023-02-11T21:19:27.755Z,1.67
2023-02-11T21:21:58.094Z,1.95
2023-02-11T21:24:26.385Z,2.53
2023-02-11T21:26:54.791Z,1.05
2023-02-11T21:29:23.152Z,2.08
2023-02-11T21:31:52.373Z,1.63
2023-02-11T21:34:21.606Z,1.58
2023-02-11T21:36:51.943Z,3.17
2023-02-11T21:39:21.141Z,2.20
2023-02-11T21:41:49.829Z,1.90
2023-02-11T21:44:18.710Z,1.73
2023-02-11T21:46:47.311Z,2.00
2023-02-11T21:49:15.569Z,2.03
2023-02-11T21:51:43.841Z,2.13
2023-02-11T21:54:12.768Z,1.67
2023-02-11T21:56:41.514Z,2.78
2023-02-11T21:59:14.919Z,2.83
2023-02-11T22:01:43.339Z,2.15
2023-02-11T22:04:11.752Z,1.90
2023-02-11T22:06:40.159Z,2.20
2023-02-11T22:09:10.313Z,3.00
2023-02-11T22:11:38.916Z,4.32
2023-02-11T22:14:08.794Z,4.88
2023-02-11T22:16:37.443Z,3.17
2023-02-11T22:19:08.170Z,2.33
2023-02-11T22:21:36.577Z,1.90
2023-02-11T22:24:05.306Z,2.53
2023-02-11T22:26:33.605Z,2.55
2023-02-11T22:29:02.075Z,2.92
2023-02-11T22:31:33.964Z,1.95
2023-02-11T22:34:03.710Z,2.47
2023-02-11T22:36:37.593Z,0.93
2023-02-11T22:39:08.954Z,2.42
2023-02-11T22:41:39.105Z,1.25
2023-02-11T22:44:07.807Z,2.50
2023-02-11T22:46:36.336Z,2.90
2023-02-11T22:49:05.736Z,2.10
2023-02-11T22:51:35.080Z,2.30
2023-02-11T22:54:06.083Z,3.33
2023-02-11T22:56:36.009Z,3.45
2023-02-11T22:59:07.730Z,3.00
2023-02-11T23:01:36.154Z,2.33
2023-02-11T23:04:07.167Z,2.53
2023-02-11T23:06:36.700Z,1.95
2023-02-11T23:09:10.490Z,2.03
2023-02-11T23:11:39.155Z,3.05
2023-02-11T23:14:09.441Z,1.70
2023-02-11T23:16:37.756Z,2.67
2023-02-11T23:19:09.664Z,1.90
2023-02-11T23:21:40.340Z,1.55
2023-02-11T23:24:16.063Z,2.63
2023-02-11T23:26:45.197Z,2.85
2023-02-11T23:29:14.324Z,1.33
2023-02-11T23:31:47.070Z,2.42
2023-02-11T23:34:21.195Z,3.10
2023-02-11T23:36:49.487Z,2.90
2023-02-11T23:39:18.098Z,2.28
2023-02-11T23:41:47.858Z,2.05
2023-02-11T23:44:16.151Z,2.50
2023-02-11T23:46:44.573Z,1.90
2023-02-11T23:49:12.866Z,0.77
2023-02-11T23:51:41.105Z,2.03
2023-02-11T23:54:11.346Z,1.83
2023-02-11T23:56:39.952Z,1.42
2023-02-11T23:59:08.234Z,1.63
